Time;durP1;ratioP1;P1;durP2;ratioP2;P2;SDS_P1;SDS_P2;PMS_P1;PMS_P2;Temp;Humidity;BMP_temperature;BMP_pressure;BME280_temperature;BME280_humidity;BME280_pressure;Samples;Min_cycle;Max_cycle;Signal;HPM_P1;HPM_P2
2021/01/27 00:02:21;;;;;;;7.30;5.57;;;5.00;99.90;;;;;;5051215;28;20182;-81
2021/01/27 00:04:46;;;;;;;6.77;6.03;;;4.70;99.90;;;;;;5020092;28;20197;-79
2021/01/27 00:07:12;;;;;;;6.90;6.00;;;4.90;99.90;;;;;;5057452;28;20213;-80
2021/01/27 00:09:38;;;;;;;6.60;5.73;;;4.90;99.90;;;;;;5071436;28;20193;-81
2021/01/27 00:12:04;;;;;;;8.87;6.50;;;4.70;99.90;;;;;;5038201;28;20201;-80
2021/01/27 00:14:30;;;;;;;10.60;6.80;;;5.00;99.90;;;;;;5066800;28;20261;-82
2021/01/27 00:16:55;;;;;;;7.50;6.40;;;4.90;99.90;;;;;;5081561;28;20503;-80
2021/01/27 00:19:21;;;;;;;6.57;5.90;;;4.80;99.90;;;;;;5076131;28;20812;-79
2021/01/27 00:21:46;;;;;;;10.63;6.20;;;4.80;99.90;;;;;;5039562;28;20204;-80
2021/01/27 00:24:12;;;;;;;9.50;6.37;;;4.60;99.90;;;;;;5032698;28;20190;-80
2021/01/27 00:26:38;;;;;;;6.47;5.40;;;4.70;99.90;;;;;;5070233;28;20194;-80
2021/01/27 00:29:03;;;;;;;6.40;5.60;;;4.70;99.90;;;;;;5062802;28;20257;-79
2021/01/27 00:31:29;;;;;;;6.20;5.17;;;4.70;99.90;;;;;;5027041;28;20785;-81
2021/01/27 00:33:55;;;;;;;6.07;5.40;;;4.90;99.90;;;;;;5061405;28;20189;-82
2021/01/27 00:36:21;;;;;;;9.47;5.57;;;4.70;99.90;;;;;;5057236;28;20617;-80
2021/01/27 00:38:46;;;;;;;8.47;5.43;;;4.90;99.90;;;;;;5076141;28;21040;-80
2021/01/27 00:41:12;;;;;;;5.37;4.80;;;4.70;99.90;;;;;;5038661;28;20197;-82
2021/01/27 00:43:38;;;;;;;5.30;4.80;;;4.80;99.90;;;;;;5070276;28;20189;-80
2021/01/27 00:46:03;;;;;;;5.90;5.17;;;4.90;99.90;;;;;;5070567;28;20197;-82
2021/01/27 00:48:29;;;;;;;8.10;5.00;;;4.80;99.90;;;;;;5077263;28;20213;-80
2021/01/27 00:50:54;;;;;;;9.60;5.20;;;4.90;99.90;;;;;;5072517;28;20196;-81
2021/01/27 00:53:20;;;;;;;5.57;5.07;;;4.60;99.90;;;;;;5070611;28;20225;-80
2021/01/27 00:55:46;;;;;;;5.80;4.87;;;4.70;99.90;;;;;;5041341;28;20226;-80
2021/01/27 00:58:12;;;;;;;6.00;4.83;;;4.80;99.90;;;;;;5039176;28;20205;-80
2021/01/27 01:00:40;;;;;;;5.23;4.37;;;4.50;99.90;;;;;;5066228;28;20193;-80
2021/01/27 01:03:08;;;;;;;7.67;4.80;;;4.60;99.90;;;;;;5066224;28;20189;-81
2021/01/27 01:05:36;;;;;;;7.33;4.53;;;4.50;99.90;;;;;;5057471;28;20896;-80
2021/01/27 01:08:03;;;;;;;7.93;5.23;;;4.70;99.90;;;;;;5061028;28;20440;-80
2021/01/27 01:10:32;;;;;;;9.17;5.50;;;4.60;99.90;;;;;;5043208;28;20464;-80
2021/01/27 01:12:59;;;;;;;5.70;4.50;;;4.40;99.90;;;;;;5061199;28;20416;-81
2021/01/27 01:15:27;;;;;;;8.00;4.80;;;4.20;99.90;;;;;;5071046;28;20443;-79
2021/01/27 01:17:53;;;;;;;5.90;4.70;;;4.60;99.90;;;;;;5058344;28;20439;-79
2021/01/27 01:20:19;;;;;;;5.73;5.00;;;4.20;99.90;;;;;;5057767;28;20523;-82
2021/01/27 01:22:50;;;;;;;6.20;4.40;;;4.20;99.90;;;;;;5071519;28;20475;-80
2021/01/27 01:25:19;;;;;;;5.97;4.17;;;4.30;99.90;;;;;;5060340;28;20479;-80
2021/01/27 01:27:45;;;;;;;6.20;4.60;;;4.40;99.90;;;;;;5074574;28;20473;-82
2021/01/27 01:30:17;;;;;;;5.87;4.40;;;4.30;99.90;;;;;;5056129;28;20440;-80
2021/01/27 01:32:43;;;;;;;5.67;4.87;;;4.20;99.90;;;;;;5073188;28;20783;-80
2021/01/27 01:35:11;;;;;;;6.90;5.00;;;4.50;99.90;;;;;;5056696;28;20502;-80
2021/01/27 01:37:38;;;;;;;4.50;4.10;;;4.40;99.90;;;;;;5072845;28;20482;-80
2021/01/27 01:40:08;;;;;;;5.80;4.93;;;4.40;99.90;;;;;;5063247;28;20447;-80
2021/01/27 01:42:34;;;;;;;6.43;4.90;;;4.50;99.90;;;;;;5053280;28;20434;-79
2021/01/27 01:45:03;;;;;;;4.50;4.10;;;4.60;99.90;;;;;;5058496;28;20431;-79
2021/01/27 01:47:28;;;;;;;7.40;4.47;;;4.40;99.90;;;;;;5074427;28;20438;-81
2021/01/27 01:49:54;;;;;;;6.20;4.90;;;4.40;99.90;;;;;;5073444;28;20419;-81
2021/01/27 01:52:21;;;;;;;5.30;4.27;;;4.50;99.90;;;;;;5036351;28;20182;-81
2021/01/27 01:54:52;;;;;;;5.60;4.53;;;4.30;99.90;;;;;;5052689;28;20235;-80
2021/01/27 01:57:30;;;;;;;5.77;4.37;;;4.30;99.90;;;;;;5073800;28;20451;-81
2021/01/27 02:00:03;;;;;;;5.30;4.10;;;4.20;99.90;;;;;;5052279;28;20585;-79
2021/01/27 02:02:32;;;;;;;5.60;4.07;;;4.30;99.90;;;;;;5041961;28;20417;-80
2021/01/27 02:05:07;;;;;;;6.33;4.33;;;4.30;99.90;;;;;;5067271;28;20419;-79
2021/01/27 02:07:34;;;;;;;5.57;4.40;;;4.20;99.90;;;;;;5072354;28;20470;-80
2021/01/27 02:09:59;;;;;;;6.73;4.93;;;4.50;99.90;;;;;;5056313;28;20415;-81
2021/01/27 02:12:47;;;;;;;6.23;4.67;;;4.50;99.90;;;;;;5063194;28;20423;-79
2021/01/27 02:15:39;;;;;;;9.00;4.73;;;4.40;99.90;;;;;;5068730;28;20196;-80
2021/01/27 02:18:37;;;;;;;6.70;4.97;;;4.40;99.90;;;;;;5068011;28;20445;-81
2021/01/27 02:21:02;;;;;;;5.67;4.30;;;4.10;99.90;;;;;;5066376;28;20475;-81
2021/01/27 02:24:10;;;;;;;8.70;5.47;;;3.90;99.90;;;;;;5072684;28;20458;-80
2021/01/27 02:26:54;;;;;;;7.90;5.97;;;3.80;99.90;;;;;;5073360;28;20286;-82
2021/01/27 02:29:56;;;;;;;6.77;5.20;;;3.60;99.90;;;;;;5071744;28;20431;-79
2021/01/27 02:32:46;;;;;;;5.90;5.10;;;3.80;99.90;;;;;;5070613;28;20492;-79
2021/01/27 02:35:33;;;;;;;6.53;5.83;;;3.70;99.90;;;;;;5063482;28;21064;-81
2021/01/27 02:38:04;;;;;;;10.30;5.30;;;3.80;99.90;;;;;;5043076;28;20447;-81
2021/01/27 02:40:42;;;;;;;7.87;5.03;;;3.50;99.90;;;;;;5073494;28;20387;-80
2021/01/27 02:43:24;;;;;;;6.73;5.37;;;3.70;99.90;;;;;;5073011;28;20426;-80
2021/01/27 02:46:02;;;;;;;7.57;5.63;;;3.70;99.90;;;;;;5066451;28;20446;-80
2021/01/27 02:48:43;;;;;;;8.43;5.90;;;3.60;99.90;;;;;;5053350;28;20463;-80
2021/01/27 02:51:17;;;;;;;6.53;5.20;;;3.40;99.90;;;;;;5059626;28;20411;-79
2021/01/27 02:53:51;;;;;;;7.10;5.53;;;3.50;99.90;;;;;;5058047;28;20419;-80
2021/01/27 02:56:55;;;;;;;7.83;5.27;;;3.40;99.90;;;;;;5067772;28;20458;-80
2021/01/27 02:59:30;;;;;;;6.20;4.90;;;3.30;99.90;;;;;;5051475;28;20465;-80
2021/01/27 03:02:09;;;;;;;6.23;4.90;;;3.50;99.90;;;;;;5069958;28;20427;-83
2021/01/27 03:04:42;;;;;;;7.43;5.33;;;3.50;99.90;;;;;;5073535;28;20417;-79
2021/01/27 03:07:11;;;;;;;7.20;5.47;;;3.30;99.90;;;;;;5071133;28;20420;-80
2021/01/27 03:09:45;;;;;;;8.70;5.27;;;3.40;99.90;;;;;;5072012;28;20892;-80
2021/01/27 03:12:10;;;;;;;5.97;4.43;;;3.40;99.90;;;;;;5080737;28;20476;-80
2021/01/27 03:14:36;;;;;;;6.17;4.80;;;3.50;99.90;;;;;;5046149;28;20444;-78
2021/01/27 03:17:10;;;;;;;6.33;5.00;;;3.40;99.90;;;;;;5070391;28;20926;-80
2021/01/27 03:19:39;;;;;;;5.80;4.33;;;3.40;99.90;;;;;;5078368;28;20386;-81
2021/01/27 03:22:16;;;;;;;4.13;3.73;;;3.50;99.90;;;;;;5057955;28;20418;-80
2021/01/27 03:24:51;;;;;;;5.27;3.80;;;3.40;99.90;;;;;;5076666;28;20423;-80
2021/01/27 03:27:22;;;;;;;5.37;4.07;;;3.10;99.90;;;;;;5076045;28;20415;-82
2021/01/27 03:29:54;;;;;;;6.00;4.33;;;3.30;99.90;;;;;;5074619;28;20406;-80
2021/01/27 03:32:34;;;;;;;8.77;4.70;;;3.50;99.90;;;;;;5089655;28;20467;-80
2021/01/27 03:35:10;;;;;;;5.50;4.00;;;3.40;99.90;;;;;;5048929;28;20430;-80
2021/01/27 03:37:38;;;;;;;5.30;4.27;;;3.20;99.90;;;;;;5057822;28;20877;-80
2021/01/27 03:40:09;;;;;;;4.57;3.57;;;3.40;99.90;;;;;;5076868;28;20415;-80
2021/01/27 03:42:53;;;;;;;4.60;4.00;;;3.30;99.90;;;;;;5046177;28;20423;-80
2021/01/27 03:45:23;;;;;;;3.90;3.20;;;3.30;99.90;;;;;;5067749;28;20480;-80
2021/01/27 03:48:02;;;;;;;5.70;4.27;;;3.40;99.90;;;;;;5050220;28;20986;-80
2021/01/27 03:50:29;;;;;;;5.13;3.73;;;3.30;99.90;;;;;;5071893;28;20545;-80
2021/01/27 03:53:00;;;;;;;6.23;3.97;;;3.40;99.90;;;;;;5075403;28;20419;-80
2021/01/27 03:55:44;;;;;;;4.10;3.70;;;3.50;99.90;;;;;;5060414;28;20921;-80
2021/01/27 03:58:14;;;;;;;4.67;3.90;;;3.60;99.90;;;;;;5076506;28;20439;-80
2021/01/27 04:00:40;;;;;;;4.50;3.87;;;3.60;99.90;;;;;;5068737;28;20487;-79
2021/01/27 04:03:15;;;;;;;4.40;3.87;;;3.60;99.90;;;;;;5077334;28;20415;-79
2021/01/27 04:05:41;;;;;;;4.13;3.33;;;3.70;99.90;;;;;;5071243;28;20429;-80
2021/01/27 04:08:06;;;;;;;4.83;3.53;;;3.60;99.90;;;;;;5055762;28;20962;-79
2021/01/27 04:10:33;;;;;;;4.90;3.70;;;3.70;99.90;;;;;;5043111;28;20551;-80
2021/01/27 04:12:58;;;;;;;4.63;3.50;;;3.60;99.90;;;;;;5063019;28;20189;-80
2021/01/27 04:15:24;;;;;;;5.20;4.00;;;3.70;99.90;;;;;;5056100;28;20467;-79
2021/01/27 04:17:50;;;;;;;4.40;3.20;;;3.80;99.90;;;;;;5052872;28;20220;-81
2021/01/27 04:20:16;;;;;;;4.10;3.57;;;3.80;99.90;;;;;;5046475;28;20239;-81
2021/01/27 04:22:41;;;;;;;3.07;2.73;;;3.70;99.90;;;;;;5075902;28;20184;-81
2021/01/27 04:25:07;;;;;;;3.30;3.00;;;3.70;99.90;;;;;;5057034;28;20235;-80
2021/01/27 04:27:33;;;;;;;3.73;2.90;;;3.60;99.90;;;;;;5073847;28;20220;-80
2021/01/27 04:29:59;;;;;;;3.10;2.80;;;3.80;99.90;;;;;;5070248;28;20436;-81
2021/01/27 04:32:25;;;;;;;3.50;3.20;;;3.70;99.90;;;;;;5035599;28;20415;-81
2021/01/27 04:34:50;;;;;;;3.27;2.73;;;3.80;99.90;;;;;;5058753;28;20184;-80
2021/01/27 04:37:16;;;;;;;3.70;2.80;;;3.60;99.90;;;;;;5062169;28;20218;-81
2021/01/27 04:39:42;;;;;;;3.80;2.57;;;3.70;99.90;;;;;;5049206;28;20181;-81
2021/01/27 04:42:10;;;;;;;4.07;2.77;;;3.70;99.90;;;;;;5070741;28;20947;-79
2021/01/27 04:44:36;;;;;;;5.63;3.20;;;3.80;99.90;;;;;;5077304;28;20185;-81
2021/01/27 04:47:34;;;;;;;3.70;3.03;;;3.50;99.90;;;;;;5050845;28;20444;-80
2021/01/27 04:50:09;;;;;;;3.20;2.77;;;3.70;99.90;;;;;;5058865;28;20415;-80
2021/01/27 04:52:57;;;;;;;3.60;2.57;;;3.80;99.90;;;;;;5075892;28;20410;-80
2021/01/27 04:55:42;;;;;;;3.03;2.40;;;3.50;99.90;;;;;;5072767;28;20514;-79
2021/01/27 04:58:26;;;;;;;3.97;3.07;;;3.40;99.90;;;;;;5056070;28;20999;-80
2021/01/27 05:00:57;;;;;;;5.83;2.87;;;3.80;99.90;;;;;;5061563;28;20424;-79
2021/01/27 05:03:49;;;;;;;3.03;2.73;;;3.70;99.90;;;;;;5071709;28;20416;-80
2021/01/27 05:06:23;;;;;;;3.20;2.77;;;3.50;99.90;;;;;;5071081;28;20395;-79
2021/01/27 05:09:02;;;;;;;4.17;3.57;;;3.60;99.90;;;;;;5071044;28;20448;-80
2021/01/27 05:11:30;;;;;;;5.23;3.40;;;3.40;99.90;;;;;;5075028;28;20546;-80
2021/01/27 05:13:59;;;;;;;3.70;3.03;;;3.30;99.90;;;;;;5056847;28;20421;-79
2021/01/27 05:16:28;;;;;;;5.03;3.20;;;3.40;99.90;;;;;;5069748;28;20455;-80
2021/01/27 05:19:14;;;;;;;5.20;3.60;;;3.50;99.90;;;;;;5068984;28;20447;-83
2021/01/27 05:21:46;;;;;;;4.53;3.10;;;3.50;99.90;;;;;;5077743;28;20398;-80
2021/01/27 05:24:12;;;;;;;3.90;3.23;;;3.50;99.90;;;;;;5068770;28;20444;-79
2021/01/27 05:27:04;;;;;;;4.60;3.57;;;3.30;99.90;;;;;;5093541;28;20408;-78
2021/01/27 05:29:38;;;;;;;3.30;2.80;;;3.30;99.90;;;;;;5094344;28;20405;-78
2021/01/27 05:32:22;;;;;;;4.73;3.20;;;3.50;99.90;;;;;;5063700;28;20434;-79
2021/01/27 05:34:53;;;;;;;3.97;3.57;;;3.20;99.90;;;;;;5079881;28;20424;-80
2021/01/27 05:37:26;;;;;;;4.07;3.17;;;3.20;99.90;;;;;;5077813;28;20442;-80
2021/01/27 05:40:09;;;;;;;5.13;3.50;;;3.20;99.90;;;;;;5060499;28;20446;-82
2021/01/27 05:42:37;;;;;;;4.07;3.07;;;3.50;99.90;;;;;;5066104;28;20420;-81
2021/01/27 05:45:25;;;;;;;3.40;2.90;;;3.50;99.90;;;;;;5055826;28;20391;-81
2021/01/27 05:47:51;;;;;;;3.43;3.13;;;3.40;99.90;;;;;;5040371;28;20478;-83
2021/01/27 05:50:43;;;;;;;3.47;3.17;;;3.40;99.90;;;;;;5056860;28;20415;-78
2021/01/27 05:53:14;;;;;;;5.40;3.13;;;3.30;99.90;;;;;;5053640;28;20972;-82
2021/01/27 05:56:17;;;;;;;3.30;2.60;;;3.40;99.90;;;;;;5073468;28;20422;-80
2021/01/27 05:59:04;;;;;;;4.40;3.37;;;3.50;99.90;;;;;;5073278;28;20431;-81
2021/01/27 06:01:36;;;;;;;3.80;2.80;;;3.50;99.90;;;;;;5060475;28;20421;-80
2021/01/27 06:04:10;;;;;;;3.97;2.50;;;3.40;99.90;;;;;;5067875;28;21053;-79
2021/01/27 06:06:49;;;;;;;3.47;3.13;;;3.50;99.90;;;;;;5070935;28;21258;-81
2021/01/27 06:09:28;;;;;;;2.40;2.20;;;3.60;99.90;;;;;;5065075;28;20427;-81
2021/01/27 06:12:06;;;;;;;3.37;2.10;;;3.60;99.90;;;;;;5073195;28;20519;-80
2021/01/27 06:14:33;;;;;;;5.40;4.40;;;3.60;99.90;;;;;;5060855;28;20424;-81
2021/01/27 06:17:27;;;;;;;3.30;2.93;;;3.40;99.90;;;;;;5075282;28;20530;-81
2021/01/27 06:20:15;;;;;;;3.00;2.60;;;3.50;99.90;;;;;;5061582;28;20998;-80
2021/01/27 06:22:57;;;;;;;2.83;2.57;;;3.40;99.90;;;;;;5074013;28;20694;-82
2021/01/27 06:25:26;;;;;;;4.23;2.70;;;3.20;99.90;;;;;;5073623;28;20414;-84
2021/01/27 06:28:33;;;;;;;2.93;2.60;;;3.40;99.90;;;;;;5071952;28;20500;-80
2021/01/27 06:31:34;;;;;;;3.90;3.33;;;3.40;99.90;;;;;;5036066;28;20443;-81
2021/01/27 06:34:12;;;;;;;4.67;4.07;;;3.20;99.90;;;;;;5058529;28;20479;-81
2021/01/27 06:36:54;;;;;;;3.70;3.40;;;3.20;99.90;;;;;;5071843;28;20418;-82
2021/01/27 06:40:10;;;;;;;3.63;3.10;;;3.10;99.90;;;;;;5066858;28;20421;-81
2021/01/27 06:42:49;;;;;;;3.70;3.10;;;3.10;99.90;;;;;;5037899;28;20426;-81
2021/01/27 06:45:30;;;;;;;4.00;3.60;;;3.30;99.90;;;;;;5059309;28;20494;-80
2021/01/27 06:48:21;;;;;;;5.07;3.83;;;3.20;99.90;;;;;;5073195;28;20428;-81
2021/01/27 06:51:03;;;;;;;4.70;3.30;;;3.40;99.90;;;;;;5061777;28;20776;-81
2021/01/27 06:53:32;;;;;;;4.20;3.73;;;3.30;99.90;;;;;;5070347;28;20906;-80
2021/01/27 06:56:09;;;;;;;6.30;3.80;;;3.30;99.90;;;;;;5043902;28;20452;-79
2021/01/27 06:59:04;;;;;;;3.90;3.17;;;3.30;99.90;;;;;;5062951;28;20467;-80
2021/01/27 07:01:44;;;;;;;3.90;3.47;;;3.20;99.90;;;;;;5048323;28;20831;-80
2021/01/27 07:04:46;;;;;;;3.90;3.00;;;3.40;99.90;;;;;;5063286;28;20415;-80
2021/01/27 07:07:54;;;;;;;4.47;2.70;;;3.30;99.90;;;;;;5065258;28;20419;-80
2021/01/27 07:10:45;;;;;;;4.37;3.27;;;3.10;99.90;;;;;;5068387;28;20422;-80
2021/01/27 07:13:54;;;;;;;3.93;3.50;;;3.20;99.90;;;;;;5048323;28;20620;-80
2021/01/27 07:16:53;;;;;;;3.60;3.30;;;3.10;99.90;;;;;;5066753;28;20461;-80
2021/01/27 07:19:45;;;;;;;3.37;3.07;;;3.50;99.90;;;;;;5056668;28;20440;-81
2021/01/27 07:22:23;;;;;;;3.83;3.43;;;3.40;99.90;;;;;;5047825;28;20394;-80
2021/01/27 07:25:30;;;;;;;4.83;3.60;;;3.40;99.90;;;;;;5032684;28;20397;-80
2021/01/27 07:28:10;;;;;;;3.73;3.33;;;3.30;99.90;;;;;;5067485;28;20443;-80
2021/01/27 07:30:53;;;;;;;4.97;3.40;;;3.20;99.90;;;;;;5055923;28;20404;-79
2021/01/27 07:33:29;;;;;;;4.80;3.20;;;3.20;99.90;;;;;;5056007;28;20510;-79
2021/01/27 07:36:09;;;;;;;4.83;3.40;;;3.40;99.90;;;;;;5043642;28;20402;-79
2021/01/27 07:38:39;;;;;;;4.60;3.17;;;3.10;99.90;;;;;;5069498;28;20433;-79
2021/01/27 07:41:09;;;;;;;3.23;2.93;;;3.10;99.90;;;;;;5072602;28;20480;-79
2021/01/27 07:43:49;;;;;;;3.30;3.00;;;3.00;99.90;;;;;;5052458;28;20426;-79
2021/01/27 07:46:24;;;;;;;4.07;3.30;;;3.20;99.90;;;;;;5062708;28;20416;-79
2021/01/27 07:49:00;;;;;;;3.83;2.93;;;3.40;99.90;;;;;;5036465;28;20450;-80
2021/01/27 07:51:29;;;;;;;3.83;3.27;;;3.20;99.90;;;;;;5047308;28;20515;-79
2021/01/27 07:54:11;;;;;;;5.10;3.83;;;3.30;99.90;;;;;;5070352;28;20498;-79
2021/01/27 07:56:50;;;;;;;3.23;2.93;;;3.30;99.90;;;;;;5071709;28;20458;-80
2021/01/27 07:59:23;;;;;;;4.57;3.40;;;3.20;99.90;;;;;;5067152;28;20499;-79
2021/01/27 08:01:58;;;;;;;5.17;3.50;;;3.20;99.90;;;;;;5072980;28;20414;-80
2021/01/27 08:04:38;;;;;;;3.70;3.00;;;3.10;99.90;;;;;;5069280;28;20411;-79
2021/01/27 08:07:04;;;;;;;3.57;2.90;;;3.20;99.90;;;;;;5070002;28;20514;-80
2021/01/27 08:09:36;;;;;;;3.27;3.00;;;3.10;99.90;;;;;;5071277;28;20443;-80
2021/01/27 08:12:40;;;;;;;5.93;3.00;;;3.20;99.90;;;;;;5066167;28;20432;-80
2021/01/27 08:15:13;;;;;;;3.40;3.10;;;3.20;99.90;;;;;;5050272;28;20459;-80
2021/01/27 08:17:59;;;;;;;3.57;3.03;;;3.20;99.90;;;;;;5035169;28;20447;-79
2021/01/27 08:20:34;;;;;;;3.50;3.20;;;3.30;99.90;;;;;;5067356;28;20419;-80
2021/01/27 08:23:20;;;;;;;3.27;3.00;;;3.20;99.90;;;;;;5063746;28;20433;-80
2021/01/27 08:26:06;;;;;;;3.70;3.40;;;3.50;99.90;;;;;;5071563;28;20423;-80
2021/01/27 08:28:39;;;;;;;4.27;3.20;;;3.20;99.90;;;;;;5050221;28;20447;-79
2021/01/27 08:31:10;;;;;;;2.90;2.63;;;3.30;99.90;;;;;;5071082;28;20904;-80
2021/01/27 08:33:52;;;;;;;3.20;2.90;;;3.20;99.90;;;;;;5069739;28;20410;-80
2021/01/27 08:36:29;;;;;;;3.90;3.23;;;3.50;99.90;;;;;;5066863;28;20433;-80
2021/01/27 08:38:58;;;;;;;3.57;3.27;;;2.90;99.90;;;;;;5071014;28;20491;-80
2021/01/27 08:41:43;;;;;;;5.10;2.90;;;3.20;99.90;;;;;;5071272;28;20818;-80
2021/01/27 08:44:21;;;;;;;4.20;3.40;;;3.20;99.90;;;;;;5054035;28;20475;-80
2021/01/27 08:47:13;;;;;;;4.73;3.67;;;3.10;99.90;;;;;;5067304;28;20472;-80
2021/01/27 08:49:44;;;;;;;3.57;3.27;;;3.30;99.90;;;;;;5063700;28;20563;-80
2021/01/27 08:52:10;;;;;;;4.30;3.60;;;3.20;99.90;;;;;;5069786;28;20466;-81
2021/01/27 08:54:41;;;;;;;3.97;3.60;;;3.20;99.90;;;;;;5051842;28;20985;-80
2021/01/27 08:57:21;;;;;;;3.30;2.90;;;3.30;99.90;;;;;;5068750;28;20236;-80
2021/01/27 08:59:58;;;;;;;3.20;2.90;;;3.40;99.90;;;;;;5079503;28;20414;-80
2021/01/27 09:02:44;;;;;;;3.17;2.87;;;3.40;99.90;;;;;;5069050;28;20823;-80
2021/01/27 09:05:19;;;;;;;2.90;2.60;;;3.40;99.90;;;;;;5050087;28;20884;-80
2021/01/27 09:07:56;;;;;;;3.40;3.10;;;3.30;99.90;;;;;;5070992;28;20525;-80
2021/01/27 09:10:27;;;;;;;3.17;2.87;;;3.40;99.90;;;;;;5068386;28;20420;-79
2021/01/27 09:12:52;;;;;;;4.60;3.33;;;3.20;99.90;;;;;;5070057;28;20498;-80
2021/01/27 09:15:31;;;;;;;3.33;3.03;;;3.30;99.90;;;;;;5033885;28;20518;-82
2021/01/27 09:17:58;;;;;;;3.90;3.53;;;3.30;99.90;;;;;;5100507;28;20218;-80
2021/01/27 09:20:28;;;;;;;2.90;2.70;;;3.50;99.90;;;;;;5057318;28;20431;-79
2021/01/27 09:23:04;;;;;;;3.43;3.00;;;3.60;99.90;;;;;;5064166;28;20414;-79
2021/01/27 09:25:31;;;;;;;3.67;2.93;;;3.40;99.90;;;;;;5060154;28;20515;-80
2021/01/27 09:28:06;;;;;;;3.03;2.70;;;3.40;99.90;;;;;;5053346;28;20458;-80
2021/01/27 09:30:32;;;;;;;2.90;2.70;;;3.50;99.90;;;;;;5057263;28;20490;-79
2021/01/27 09:33:18;;;;;;;2.73;2.50;;;3.50;99.90;;;;;;5070415;28;20427;-81
2021/01/27 09:35:46;;;;;;;2.90;2.70;;;3.50;99.90;;;;;;5064489;28;20464;-79
2021/01/27 09:38:21;;;;;;;2.33;2.13;;;3.60;99.90;;;;;;5051450;28;20832;-80
2021/01/27 09:40:51;;;;;;;2.70;2.50;;;3.40;99.90;;;;;;5054131;28;20398;-81
2021/01/27 09:43:21;;;;;;;2.67;2.47;;;3.40;99.90;;;;;;5060526;28;20446;-81
2021/01/27 09:45:50;;;;;;;3.17;2.90;;;3.40;99.90;;;;;;5067231;28;20808;-81
2021/01/27 09:48:21;;;;;;;5.47;4.93;;;3.50;99.90;;;;;;5060678;28;20497;-79
2021/01/27 09:50:59;;;;;;;3.10;2.90;;;3.60;99.90;;;;;;5067089;28;20435;-81
2021/01/27 09:53:37;;;;;;;3.03;2.67;;;3.50;99.90;;;;;;5069222;28;20419;-79
2021/01/27 09:56:05;;;;;;;2.73;2.40;;;3.60;99.90;;;;;;5033880;28;20466;-82
2021/01/27 09:58:31;;;;;;;2.43;2.23;;;3.60;99.90;;;;;;5068975;28;20785;-81
2021/01/27 10:01:05;;;;;;;2.93;2.60;;;3.90;99.90;;;;;;5071771;28;20424;-79
2021/01/27 10:03:35;;;;;;;2.83;2.63;;;3.70;99.90;;;;;;5070022;28;20419;-80
2021/01/27 10:06:01;;;;;;;3.00;2.80;;;3.90;99.90;;;;;;5063936;28;20821;-81
2021/01/27 10:08:41;;;;;;;2.97;2.53;;;3.50;99.90;;;;;;5046097;28;20456;-80
2021/01/27 10:11:24;;;;;;;3.10;2.80;;;3.40;99.90;;;;;;5066196;28;20701;-80
2021/01/27 10:13:59;;;;;;;3.30;3.00;;;3.90;99.90;;;;;;5056460;28;20425;-80
2021/01/27 10:16:25;;;;;;;3.43;3.13;;;3.80;99.90;;;;;;5065039;28;20440;-80
2021/01/27 10:19:07;;;;;;;3.40;3.00;;;3.70;99.90;;;;;;5059808;28;20508;-80
2021/01/27 10:21:46;;;;;;;3.63;3.33;;;3.70;99.90;;;;;;5064051;28;20434;-80
2021/01/27 10:24:48;;;;;;;3.20;2.90;;;3.90;99.90;;;;;;5064608;28;20422;-81
2021/01/27 10:27:40;;;;;;;3.00;2.80;;;4.00;99.90;;;;;;5060749;28;20506;-80
2021/01/27 10:30:16;;;;;;;3.67;3.37;;;4.10;99.90;;;;;;5065903;28;20818;-80
2021/01/27 10:32:46;;;;;;;3.67;3.37;;;4.10;99.90;;;;;;5068892;28;20414;-80
2021/01/27 10:35:32;;;;;;;3.63;3.33;;;4.00;99.90;;;;;;5052131;28;20439;-80
2021/01/27 10:38:01;;;;;;;3.87;3.57;;;4.00;99.90;;;;;;5067718;28;20459;-81
2021/01/27 10:40:31;;;;;;;3.87;3.40;;;3.80;99.90;;;;;;5070336;28;20427;-80
2021/01/27 10:43:20;;;;;;;4.00;3.67;;;4.00;99.90;;;;;;5069966;28;20496;-80
2021/01/27 10:45:45;;;;;;;3.57;3.27;;;4.00;99.90;;;;;;5063320;28;20545;-81
2021/01/27 10:48:11;;;;;;;4.03;3.73;;;3.70;99.90;;;;;;5068233;28;20835;-80
2021/01/27 10:51:04;;;;;;;6.17;4.13;;;3.90;99.90;;;;;;5065653;28;20242;-82
2021/01/27 10:53:42;;;;;;;4.20;3.90;;;3.80;99.90;;;;;;5042955;28;20740;-81
2021/01/27 10:56:10;;;;;;;4.57;4.17;;;3.80;99.90;;;;;;5048506;28;20472;-82
2021/01/27 10:58:36;;;;;;;4.07;3.77;;;3.90;99.90;;;;;;5064136;28;20411;-80
2021/01/27 11:01:01;;;;;;;4.30;3.90;;;4.10;99.90;;;;;;5069891;28;20426;-82
2021/01/27 11:03:27;;;;;;;5.23;3.30;;;4.00;99.90;;;;;;5052063;28;20685;-81
2021/01/27 11:05:53;;;;;;;3.87;3.57;;;4.00;99.90;;;;;;5050780;28;20259;-81
2021/01/27 11:08:31;;;;;;;3.63;3.33;;;3.90;99.90;;;;;;5033370;28;20217;-81
2021/01/27 11:10:58;;;;;;;3.80;3.50;;;4.00;99.90;;;;;;5052806;28;20190;-82
2021/01/27 11:13:24;;;;;;;3.47;3.27;;;3.80;99.90;;;;;;5068480;28;20800;-81
2021/01/27 11:15:50;;;;;;;4.03;3.57;;;4.10;99.90;;;;;;5054882;28;20439;-81
2021/01/27 11:18:16;;;;;;;3.83;3.53;;;3.80;99.90;;;;;;5076299;28;20439;-80
2021/01/27 11:20:42;;;;;;;3.40;3.10;;;4.00;99.90;;;;;;5072966;28;20994;-79
2021/01/27 11:23:08;;;;;;;3.67;3.00;;;4.00;99.90;;;;;;5075070;28;20423;-80
2021/01/27 11:25:34;;;;;;;3.37;3.07;;;3.90;99.90;;;;;;5047471;28;20995;-81
2021/01/27 11:28:00;;;;;;;4.63;2.80;;;4.20;99.90;;;;;;5053097;28;20746;-81
2021/01/27 11:30:28;;;;;;;2.80;2.60;;;4.30;99.90;;;;;;5039424;28;20219;-82
2021/01/27 11:32:54;;;;;;;3.33;3.03;;;4.20;99.90;;;;;;5070123;28;20606;-81
2021/01/27 11:35:21;;;;;;;3.50;3.20;;;4.20;99.90;;;;;;5057377;28;20529;-81
2021/01/27 11:37:48;;;;;;;3.40;3.10;;;4.00;99.90;;;;;;5066694;28;20478;-80
2021/01/27 11:40:16;;;;;;;3.33;3.03;;;4.30;99.90;;;;;;5057660;28;20428;-82
2021/01/27 11:42:42;;;;;;;2.80;2.60;;;4.20;99.90;;;;;;5061458;28;20414;-81
2021/01/27 11:45:09;;;;;;;3.40;3.20;;;4.00;99.90;;;;;;5037264;28;20979;-80
2021/01/27 11:47:36;;;;;;;3.10;2.90;;;3.90;99.90;;;;;;5073844;28;20216;-82
2021/01/27 11:50:03;;;;;;;3.40;3.10;;;4.10;99.90;;;;;;5057747;28;20423;-80
2021/01/27 11:52:29;;;;;;;3.27;2.97;;;4.00;99.90;;;;;;5069146;28;20461;-81
2021/01/27 11:54:54;;;;;;;2.93;2.73;;;4.30;99.90;;;;;;5039873;28;20428;-81
2021/01/27 11:57:21;;;;;;;3.03;2.83;;;4.00;99.90;;;;;;5074825;28;20627;-80
2021/01/27 11:59:47;;;;;;;4.00;3.70;;;4.00;99.90;;;;;;5062096;28;20182;-80
2021/01/27 12:02:13;;;;;;;3.47;3.17;;;4.30;99.90;;;;;;5072656;28;20442;-80
2021/01/27 12:04:39;;;;;;;3.30;3.00;;;4.10;99.90;;;;;;5073628;28;21116;-81
2021/01/27 12:07:06;;;;;;;3.50;2.80;;;4.10;99.90;;;;;;5060777;28;20419;-80
2021/01/27 12:09:35;;;;;;;6.03;3.13;;;4.20;99.90;;;;;;5037286;28;20214;-81
2021/01/27 12:12:06;;;;;;;3.17;2.87;;;4.20;99.90;;;;;;5071990;28;20449;-82
2021/01/27 12:14:32;;;;;;;3.07;2.87;;;4.50;99.90;;;;;;5061258;28;20443;-82
2021/01/27 12:16:58;;;;;;;3.07;2.87;;;4.60;99.90;;;;;;5074908;28;20546;-82
2021/01/27 12:19:24;;;;;;;2.90;2.70;;;4.50;99.90;;;;;;5054744;28;20720;-80
2021/01/27 12:21:49;;;;;;;3.03;2.77;;;4.60;99.90;;;;;;5054067;28;20423;-80
2021/01/27 12:24:15;;;;;;;3.43;3.13;;;4.40;99.90;;;;;;5054506;28;20750;-81
2021/01/27 12:26:41;;;;;;;3.57;3.27;;;4.40;99.90;;;;;;5073271;28;20189;-81
2021/01/27 12:29:07;;;;;;;3.77;3.47;;;4.30;99.90;;;;;;5071917;28;20204;-80
2021/01/27 12:31:33;;;;;;;4.00;3.60;;;4.20;99.90;;;;;;5034772;28;20960;-81
2021/01/27 12:33:58;;;;;;;4.00;3.30;;;4.20;99.90;;;;;;5065400;28;20177;-80
2021/01/27 12:36:24;;;;;;;3.57;3.27;;;4.30;99.90;;;;;;5071701;28;20447;-80
2021/01/27 12:38:50;;;;;;;3.93;3.47;;;4.30;99.90;;;;;;5018330;28;20566;-81
2021/01/27 12:41:16;;;;;;;3.87;3.57;;;4.20;99.90;;;;;;5071880;28;20178;-80
2021/01/27 12:43:42;;;;;;;3.60;3.30;;;4.20;99.90;;;;;;5070791;28;20549;-81
2021/01/27 12:46:08;;;;;;;4.17;3.77;;;4.30;99.90;;;;;;5037967;28;20382;-81
2021/01/27 12:48:33;;;;;;;6.97;3.60;;;4.20;99.90;;;;;;5051620;28;20233;-82
2021/01/27 12:50:59;;;;;;;4.43;4.00;;;3.80;99.90;;;;;;5055132;28;20854;-81
2021/01/27 12:53:26;;;;;;;5.60;4.77;;;4.00;99.90;;;;;;5068972;28;20220;-81
2021/01/27 12:55:53;;;;;;;4.30;3.90;;;4.10;99.90;;;;;;5061947;28;20423;-80
2021/01/27 12:58:19;;;;;;;4.97;4.47;;;4.30;99.90;;;;;;5070571;28;20450;-81
2021/01/27 13:00:44;;;;;;;4.80;4.33;;;4.20;99.90;;;;;;5071090;28;20408;-80
2021/01/27 13:03:10;;;;;;;4.90;4.40;;;4.10;99.90;;;;;;5039228;28;20408;-81
2021/01/27 13:05:37;;;;;;;6.43;4.57;;;4.20;99.90;;;;;;5077766;28;20181;-80
2021/01/27 13:08:04;;;;;;;7.40;5.83;;;4.10;99.90;;;;;;5073129;28;20275;-81
2021/01/27 13:10:30;;;;;;;6.10;5.53;;;4.10;99.90;;;;;;5053890;28;20892;-81
2021/01/27 13:12:56;;;;;;;6.67;5.80;;;4.10;99.90;;;;;;5025899;28;20420;-81
2021/01/27 13:15:22;;;;;;;6.63;5.93;;;4.00;99.90;;;;;;5078338;28;20424;-83
2021/01/27 13:17:50;;;;;;;6.60;5.90;;;4.10;99.90;;;;;;5076893;28;21049;-82
2021/01/27 13:20:19;;;;;;;6.93;6.10;;;4.10;99.90;;;;;;5075311;28;20476;-81
2021/01/27 13:22:45;;;;;;;7.93;6.00;;;4.20;99.90;;;;;;5075180;28;20521;-81
2021/01/27 13:25:15;;;;;;;7.70;6.90;;;4.10;99.90;;;;;;5069487;28;20443;-81
2021/01/27 13:27:41;;;;;;;7.90;6.37;;;4.10;99.90;;;;;;5059977;28;20849;-82
2021/01/27 13:30:08;;;;;;;7.40;6.40;;;4.00;99.90;;;;;;5057971;28;20404;-82
2021/01/27 13:32:34;;;;;;;6.23;5.50;;;4.20;99.90;;;;;;5057893;28;20805;-81